Time;durP1;ratioP1;P1;durP2;ratioP2;P2;SDS_P1;SDS_P2;PMS_P1;PMS_P2;Temp;Humidity;BMP_temperature;BMP_pressure;BME280_temperature;BME280_humidity;BME280_pressure;Samples;Min_cycle;Max_cycle;Signal;HPM_P1;HPM_P2
2021/04/01 00:02:04;;;;;;;;;;;13.90;68.30;;;;;;5075959;28;19916;-74
2021/04/01 00:04:31;;;;;;;;;;;13.90;68.20;;;;;;5076835;28;19961;-74
2021/04/01 00:06:57;;;;;;;;;;;13.90;68.30;;;;;;5082189;28;19934;-75
2021/04/01 00:09:25;;;;;;;;;;;14.00;68.20;;;;;;5074842;28;19924;-74
2021/04/01 00:11:53;;;;;;;;;;;14.00;67.80;;;;;;5075136;28;19924;-74
2021/04/01 00:14:20;;;;;;;;;;;13.90;68.40;;;;;;5075967;28;19966;-74
2021/04/01 00:16:46;;;;;;;;;;;14.00;67.80;;;;;;5075788;28;19920;-74
2021/04/01 00:19:12;;;;;;;;;;;13.90;67.20;;;;;;5061413;28;19920;-74
2021/04/01 00:21:39;;;;;;;;;;;13.90;68.20;;;;;;5074737;28;20459;-74
2021/04/01 00:24:05;;;;;;;;;;;13.90;68.20;;;;;;5075737;28;19926;-74
2021/04/01 00:26:30;;;;;;;;;;;13.90;68.20;;;;;;5076073;28;19916;-74
2021/04/01 00:28:56;;;;;;;;;;;13.90;68.20;;;;;;5074715;28;19920;-74
2021/04/01 00:31:21;;;;;;;;;;;13.80;68.20;;;;;;5074784;28;19943;-74
2021/04/01 00:33:47;;;;;;;;;;;13.80;68.10;;;;;;5088369;28;19950;-74
2021/04/01 00:36:13;;;;;;;;;;;13.80;67.80;;;;;;5089764;28;19916;-74
2021/04/01 00:38:38;;;;;;;;;;;13.80;68.40;;;;;;5076349;28;19921;-74
2021/04/01 00:41:06;;;;;;;;;;;13.70;68.20;;;;;;5074429;28;20019;-74
2021/04/01 00:43:32;;;;;;;;;;;13.70;67.80;;;;;;5073647;28;19964;-74
2021/04/01 00:46:00;;;;;;;;;;;13.70;68.10;;;;;;5079000;28;20379;-74
2021/04/01 00:48:28;;;;;;;;;;;13.70;67.80;;;;;;5074608;28;19920;-74
2021/04/01 00:50:56;;;;;;;;;;;13.70;67.90;;;;;;5073773;28;20040;-74
2021/04/01 00:53:21;;;;;;;;;;;13.70;67.70;;;;;;5084667;28;20254;-74
2021/04/01 00:55:49;;;;;;;;;;;13.60;67.80;;;;;;5074595;28;19966;-74
2021/04/01 00:58:15;;;;;;;;;;;13.60;68.10;;;;;;5073733;28;20514;-74
2021/04/01 01:00:40;;;;;;;;;;;13.60;67.60;;;;;;5090957;27;19928;-74
2021/04/01 01:03:06;;;;;;;;;;;13.60;67.70;;;;;;5076609;28;19978;-74
2021/04/01 01:05:32;;;;;;;;;;;13.60;67.20;;;;;;5074926;28;19931;-74
2021/04/01 01:07:58;;;;;;;;;;;13.60;67.60;;;;;;5072742;28;19916;-74
2021/04/01 01:10:26;;;;;;;;;;;13.60;66.50;;;;;;5075850;28;20378;-73
2021/04/01 01:12:52;;;;;;;;;;;13.60;67.10;;;;;;5075895;28;20323;-74
2021/04/01 01:15:20;;;;;;;;;;;13.60;67.20;;;;;;5081657;28;19945;-74
2021/04/01 01:17:49;;;;;;;;;;;13.60;66.50;;;;;;5073981;28;19977;-74
2021/04/01 01:20:14;;;;;;;;;;;13.60;67.10;;;;;;5074823;28;19924;-74
2021/04/01 01:22:42;;;;;;;;;;;13.60;67.50;;;;;;5107258;27;19916;-74
2021/04/01 01:25:08;;;;;;;;;;;13.60;67.50;;;;;;5082740;28;19916;-75
2021/04/01 01:27:34;;;;;;;;;;;13.60;67.20;;;;;;5077174;28;20424;-75
2021/04/01 01:30:02;;;;;;;;;;;13.60;67.50;;;;;;5075110;28;19920;-75
2021/04/01 01:32:36;;;;;;;;;;;13.60;67.20;;;;;;5077590;28;19982;-74
2021/04/01 01:35:01;;;;;;;;;;;13.50;67.10;;;;;;5071698;28;19927;-74
2021/04/01 01:37:27;;;;;;;;;;;13.50;67.30;;;;;;5088862;28;19920;-74
2021/04/01 01:39:53;;;;;;;;;;;13.50;67.20;;;;;;5075444;28;19934;-74
2021/04/01 01:42:20;;;;;;;;;;;13.50;67.50;;;;;;5074539;28;19998;-74
2021/04/01 01:44:48;;;;;;;;;;;13.50;67.10;;;;;;5074687;28;19928;-74
2021/04/01 01:47:14;;;;;;;;;;;13.50;66.90;;;;;;5074876;28;19927;-74
2021/04/01 01:49:40;;;;;;;;;;;13.50;67.10;;;;;;5079247;28;19920;-74
2021/04/01 01:52:06;;;;;;;;;;;13.50;67.10;;;;;;5083913;28;19920;-75
2021/04/01 01:54:31;;;;;;;;;;;13.40;67.20;;;;;;5087655;28;19916;-74
2021/04/01 01:56:57;;;;;;;;;;;13.40;67.30;;;;;;5079736;28;19920;-74
2021/04/01 01:59:25;;;;;;;;;;;13.40;66.90;;;;;;5089310;28;19922;-74
2021/04/01 02:01:51;;;;;;;;;;;13.40;67.40;;;;;;5099083;28;20059;-74
2021/04/01 02:04:16;;;;;;;;;;;13.40;67.30;;;;;;5088385;28;19920;-74
2021/04/01 02:06:45;;;;;;;;;;;13.30;67.30;;;;;;5074064;28;19922;-74
2021/04/01 02:09:11;;;;;;;;;;;13.40;67.70;;;;;;5075015;28;19916;-74
2021/04/01 02:11:39;;;;;;;;;;;13.30;67.60;;;;;;5075394;28;20555;-74
2021/04/01 02:14:07;;;;;;;;;;;13.30;67.10;;;;;;5075744;28;19921;-74
2021/04/01 02:16:33;;;;;;;;;;;13.30;66.80;;;;;;5078710;28;20021;-74
2021/04/01 02:19:01;;;;;;;;;;;13.30;67.70;;;;;;5077517;28;20404;-74
2021/04/01 02:21:26;;;;;;;;;;;13.30;68.20;;;;;;5077227;28;20715;-74
2021/04/01 02:23:54;;;;;;;;;;;13.30;67.50;;;;;;5078274;28;19924;-74
2021/04/01 02:26:22;;;;;;;;;;;13.30;67.60;;;;;;5076213;28;19920;-74
2021/04/01 02:28:47;;;;;;;;;;;13.30;68.10;;;;;;5078177;28;19916;-74
2021/04/01 02:31:19;;;;;;;;;;;13.30;68.10;;;;;;5078388;28;20771;-74
2021/04/01 02:33:45;;;;;;;;;;;13.30;68.10;;;;;;5076215;28;20351;-74
2021/04/01 02:36:10;;;;;;;;;;;13.20;68.00;;;;;;5078274;28;19931;-74
2021/04/01 02:38:36;;;;;;;;;;;13.20;68.60;;;;;;5077062;28;19912;-74
2021/04/01 02:41:04;;;;;;;;;;;13.20;68.40;;;;;;5077441;28;20016;-75
2021/04/01 02:43:32;;;;;;;;;;;13.20;68.80;;;;;;5078302;28;19927;-74
2021/04/01 02:46:02;;;;;;;;;;;13.20;69.20;;;;;;5081345;28;19966;-75
2021/04/01 02:48:27;;;;;;;;;;;13.10;68.50;;;;;;5077617;28;20365;-75
2021/04/01 02:50:53;;;;;;;;;;;13.10;69.30;;;;;;5077405;28;19978;-75
2021/04/01 02:53:19;;;;;;;;;;;13.10;69.10;;;;;;5076728;28;19926;-75
2021/04/01 02:55:47;;;;;;;;;;;13.10;69.20;;;;;;5093816;27;19919;-75
2021/04/01 02:58:15;;;;;;;;;;;13.10;69.50;;;;;;5077362;28;19931;-75
2021/04/01 03:00:40;;;;;;;;;;;13.10;69.70;;;;;;5086962;28;19927;-75
2021/04/01 03:03:11;;;;;;;;;;;13.10;69.10;;;;;;5079496;28;19916;-74
2021/04/01 03:05:37;;;;;;;;;;;13.10;69.50;;;;;;5087585;28;19916;-75
2021/04/01 03:08:05;;;;;;;;;;;13.00;69.40;;;;;;5076096;28;19916;-74
2021/04/01 03:10:31;;;;;;;;;;;13.10;69.80;;;;;;5076369;28;19973;-74
2021/04/01 03:12:59;;;;;;;;;;;13.10;69.70;;;;;;5093262;28;19924;-75
2021/04/01 03:15:27;;;;;;;;;;;13.10;69.80;;;;;;5090468;28;20293;-74
2021/04/01 03:17:52;;;;;;;;;;;13.10;70.00;;;;;;5076372;28;19917;-75
2021/04/01 03:20:18;;;;;;;;;;;13.10;70.20;;;;;;5077867;28;19927;-75
2021/04/01 03:22:43;;;;;;;;;;;13.10;70.00;;;;;;5077265;28;19919;-75
2021/04/01 03:25:14;;;;;;;;;;;13.10;70.40;;;;;;5078743;28;19991;-75
2021/04/01 03:27:39;;;;;;;;;;;13.10;70.20;;;;;;5078025;28;20440;-74
2021/04/01 03:30:11;;;;;;;;;;;13.10;69.80;;;;;;5092994;27;19927;-74
2021/04/01 03:32:40;;;;;;;;;;;13.10;70.10;;;;;;5076877;28;20050;-74
2021/04/01 03:35:05;;;;;;;;;;;13.10;70.40;;;;;;5076040;28;19992;-74
2021/04/01 03:37:31;;;;;;;;;;;13.10;70.00;;;;;;5075605;28;20349;-75
2021/04/01 03:39:57;;;;;;;;;;;13.10;70.40;;;;;;5075914;28;19920;-75
2021/04/01 03:42:23;;;;;;;;;;;13.10;70.60;;;;;;5092520;27;19973;-75
2021/04/01 03:44:49;;;;;;;;;;;13.10;70.10;;;;;;5079078;28;19916;-75
2021/04/01 03:47:14;;;;;;;;;;;13.10;70.60;;;;;;5087033;28;19920;-75
2021/04/01 03:49:40;;;;;;;;;;;13.10;70.40;;;;;;5076463;28;20341;-74
2021/04/01 03:52:08;;;;;;;;;;;13.10;71.10;;;;;;5094484;28;20474;-75
2021/04/01 03:54:35;;;;;;;;;;;13.10;70.80;;;;;;5084758;28;19920;-74
2021/04/01 03:57:03;;;;;;;;;;;13.10;70.10;;;;;;5075976;28;19916;-74
2021/04/01 03:59:47;;;;;;;;;;;13.10;70.70;;;;;;5076725;28;19919;-74
2021/04/01 04:15:15;;;;;;;;;;;13.10;70.90;;;;;;5075935;28;20486;-74
2021/04/01 04:17:41;;;;;;;;;;;13.10;71.30;;;;;;5086877;28;19943;-76
2021/04/01 04:20:07;;;;;;;;;;;13.10;71.00;;;;;;5075012;28;20522;-74
2021/04/01 04:22:35;;;;;;;;;;;13.00;71.20;;;;;;5076225;28;19982;-74
2021/04/01 04:25:03;;;;;;;;;;;13.00;71.20;;;;;;5076305;28;19920;-75
2021/04/01 04:27:44;;;;;;;;;;;12.90;71.50;;;;;;5090423;27;19931;-75
2021/04/01 04:30:10;;;;;;;;;;;12.90;72.00;;;;;;5075692;28;20300;-75
2021/04/01 04:32:36;;;;;;;;;;;12.80;71.40;;;;;;5076315;28;19921;-75
2021/04/01 04:35:02;;;;;;;;;;;12.80;72.10;;;;;;5077674;28;20015;-75
2021/04/01 04:37:27;;;;;;;;;;;12.70;72.40;;;;;;5075652;28;21320;-74
2021/04/01 04:39:55;;;;;;;;;;;12.70;72.30;;;;;;5089966;27;20346;-75
2021/04/01 04:42:23;;;;;;;;;;;12.60;72.60;;;;;;5076914;28;19915;-75
2021/04/01 04:44:49;;;;;;;;;;;12.60;73.20;;;;;;5074389;28;19931;-75
2021/04/01 04:47:14;;;;;;;;;;;12.50;73.70;;;;;;5089449;28;19916;-74
2021/04/01 04:49:40;;;;;;;;;;;12.50;73.30;;;;;;5089767;28;19989;-74
2021/04/01 04:52:06;;;;;;;;;;;12.40;73.40;;;;;;5077091;28;19920;-74
2021/04/01 04:54:34;;;;;;;;;;;12.40;73.90;;;;;;5073547;28;19920;-75
2021/04/01 04:57:09;;;;;;;;;;;12.30;74.20;;;;;;5074139;28;19916;-75
2021/04/01 05:00:08;;;;;;;;;;;12.30;73.50;;;;;;5075458;28;19916;-75
2021/04/01 05:05:12;;;;;;;;;;;12.20;73.60;;;;;;5073653;28;20927;-74
2021/04/01 05:07:38;;;;;;;;;;;12.20;73.20;;;;;;5074333;28;20277;-75
2021/04/01 05:10:06;;;;;;;;;;;12.20;75.00;;;;;;5080916;28;19930;-75
2021/04/01 05:12:32;;;;;;;;;;;12.10;75.80;;;;;;5076441;28;20041;-75
2021/04/01 05:14:57;;;;;;;;;;;12.10;76.30;;;;;;5072254;28;19921;-75
2021/04/01 05:17:25;;;;;;;;;;;12.10;76.60;;;;;;5074909;28;19924;-75
2021/04/01 05:19:59;;;;;;;;;;;12.00;77.10;;;;;;5076850;28;19920;-75
2021/04/01 05:25:01;;;;;;;;;;;11.90;76.40;;;;;;5074366;28;19995;-75
2021/04/01 05:27:42;;;;;;;;;;;11.90;76.50;;;;;;5079894;28;19916;-75
2021/04/01 05:30:08;;;;;;;;;;;11.90;76.90;;;;;;5075655;28;19927;-75
2021/04/01 05:32:36;;;;;;;;;;;11.80;78.90;;;;;;5083887;28;19919;-75
2021/04/01 05:35:07;;;;;;;;;;;11.80;79.50;;;;;;5089232;28;19948;-75
2021/04/01 05:37:37;;;;;;;;;;;11.80;79.70;;;;;;5080220;28;20274;-75
2021/04/01 05:40:06;;;;;;;;;;;11.70;79.80;;;;;;5075933;28;20389;-74
2021/04/01 05:42:39;;;;;;;;;;;11.80;79.90;;;;;;5084768;28;20013;-74
2021/04/01 06:04:03;;;;;;;;;;;11.70;81.50;;;;;;5082136;28;19920;-75
2021/04/01 06:06:34;;;;;;;;;;;11.70;80.40;;;;;;5090324;28;20056;-75
2021/04/01 06:09:05;;;;;;;;;;;11.80;80.90;;;;;;5091272;28;20345;-75
2021/04/01 06:11:34;;;;;;;;;;;11.80;81.90;;;;;;5088268;28;19969;-75
2021/04/01 06:14:12;;;;;;;;;;;11.80;83.20;;;;;;5088627;28;19930;-74
2021/04/01 06:16:41;;;;;;;;;;;11.80;84.20;;;;;;5087692;28;20016;-75
2021/04/01 06:19:10;;;;;;;;;;;11.80;85.40;;;;;;5088885;28;20333;-74
2021/04/01 06:21:40;;;;;;;;;;;11.80;83.90;;;;;;5095460;28;20433;-75
2021/04/01 06:24:22;;;;;;;;;;;11.80;83.60;;;;;;5090963;28;20335;-75
2021/04/01 06:26:54;;;;;;;;;;;11.80;84.00;;;;;;5088947;28;19928;-75
2021/04/01 06:29:20;;;;;;;;;;;11.80;85.00;;;;;;5087065;28;19917;-75
2021/04/01 06:31:47;;;;;;;;;;;11.90;82.90;;;;;;5088014;28;19916;-74
2021/04/01 06:34:13;;;;;;;;;;;11.90;85.90;;;;;;5091173;28;19912;-76
2021/04/01 06:36:57;;;;;;;;;;;11.90;84.60;;;;;;5095407;28;19920;-74
2021/04/01 06:39:23;;;;;;;;;;;11.90;86.30;;;;;;5091636;28;20360;-75
2021/04/01 06:41:51;;;;;;;;;;;11.90;86.40;;;;;;5093889;28;19947;-75
2021/04/01 06:44:23;;;;;;;;;;;12.00;86.50;;;;;;5092410;28;19938;-75
2021/04/01 06:46:51;;;;;;;;;;;12.00;85.80;;;;;;5091575;28;19919;-75
2021/04/01 06:49:43;;;;;;;;;;;12.10;85.00;;;;;;5095070;28;19919;-75
2021/04/01 06:52:14;;;;;;;;;;;12.10;85.10;;;;;;5090445;28;19927;-74
2021/04/01 06:54:46;;;;;;;;;;;12.20;84.90;;;;;;5099132;28;19931;-74
2021/04/01 07:00:06;;;;;;;;;;;12.30;87.20;;;;;;5092143;28;19920;-75
2021/04/01 07:02:33;;;;;;;;;;;12.40;88.60;;;;;;5079260;28;19916;-74
2021/04/01 07:05:35;;;;;;;;;;;12.50;88.30;;;;;;5072367;28;20798;-74
2021/04/01 07:08:06;;;;;;;;;;;12.60;90.70;;;;;;5095885;27;19963;-75
2021/04/01 07:11:01;;;;;;;;;;;12.70;90.10;;;;;;5092233;28;19948;-75
2021/04/01 07:13:25;;;;;;;;;;;12.80;90.40;;;;;;5091401;28;20463;-75
2021/04/01 07:15:55;;;;;;;;;;;12.90;90.40;;;;;;5076861;28;19942;-75
2021/04/01 07:46:12;;;;;;;;;;;13.80;90.70;;;;;;5093157;28;20029;-75
2021/04/01 07:48:34;;;;;;;;;;;13.90;87.90;;;;;;5090092;28;19923;-75
2021/04/01 07:51:02;;;;;;;;;;;14.00;84.90;;;;;;5081883;28;19937;-75
2021/04/01 07:53:28;;;;;;;;;;;14.10;85.30;;;;;;5090704;28;19916;-75
2021/04/01 07:56:02;;;;;;;;;;;14.10;84.80;;;;;;5094227;28;19935;-75
2021/04/01 08:03:54;;;;;;;;;;;14.30;84.80;;;;;;5109428;27;20395;-74
2021/04/01 08:06:20;;;;;;;;;;;14.40;83.20;;;;;;5094633;27;19912;-75
2021/04/01 08:08:48;;;;;;;;;;;14.40;84.40;;;;;;5094332;27;19954;-74
2021/04/01 08:11:21;;;;;;;;;;;14.50;82.90;;;;;;5086740;28;20570;-74
2021/04/01 08:13:47;;;;;;;;;;;14.50;83.80;;;;;;5088116;28;19919;-74
2021/04/01 08:16:15;;;;;;;;;;;14.60;83.60;;;;;;5101934;27;19935;-74
2021/04/01 08:18:43;;;;;;;;;;;14.60;81.70;;;;;;5089192;28;20250;-74
2021/04/01 08:21:11;;;;;;;;;;;14.70;83.30;;;;;;5089547;28;20383;-74
2021/04/01 08:23:41;;;;;;;;;;;14.70;81.80;;;;;;5085422;28;19927;-74
2021/04/01 08:36:26;;;;;;;;;;;15.00;82.30;;;;;;5095611;28;19916;-74
2021/04/01 08:38:54;;;;;;;;;;;15.10;82.60;;;;;;5089909;28;19922;-74
2021/04/01 08:41:29;;;;;;;;;;;15.30;82.50;;;;;;5089840;28;19920;-74
2021/04/01 08:43:57;;;;;;;;;;;15.40;86.20;;;;;;5088450;28;19919;-75
2021/04/01 08:46:22;;;;;;;;;;;15.50;83.40;;;;;;5106050;27;20325;-75
2021/04/01 08:48:51;;;;;;;;;;;15.70;85.50;;;;;;5089224;28;19912;-74
2021/04/01 08:51:29;;;;;;;;;;;15.80;79.10;;;;;;5088646;28;19923;-75
2021/04/01 08:54:07;;;;;;;;;;;16.00;80.90;;;;;;5085998;28;19973;-74
2021/04/01 08:56:32;;;;;;;;;;;16.10;80.10;;;;;;5088247;28;19969;-75
2021/04/01 08:59:01;;;;;;;;;;;16.30;77.10;;;;;;5092264;28;19923;-74
2021/04/01 09:01:36;;;;;;;;;;;16.40;74.40;;;;;;5107169;27;19920;-74
2021/04/01 09:04:04;;;;;;;;;;;16.60;79.90;;;;;;5073189;28;19915;-74
2021/04/01 09:06:32;;;;;;;;;;;16.70;82.10;;;;;;5092341;28;20474;-74
2021/04/01 09:09:06;;;;;;;;;;;16.90;77.30;;;;;;5088287;28;20554;-75
2021/04/01 09:11:40;;;;;;;;;;;17.00;75.40;;;;;;5094237;28;19930;-75
2021/04/01 09:14:19;;;;;;;;;;;17.10;78.70;;;;;;5090987;28;19920;-74
2021/04/01 09:17:10;;;;;;;;;;;17.20;74.00;;;;;;5087684;28;19916;-75
2021/04/01 09:19:36;;;;;;;;;;;17.40;76.00;;;;;;5108345;28;21854;-74
2021/04/01 09:22:02;;;;;;;;;;;17.50;72.60;;;;;;5108504;27;19912;-75
2021/04/01 09:24:28;;;;;;;;;;;17.70;70.70;;;;;;5088263;28;20479;-75
2021/04/01 09:26:56;;;;;;;;;;;17.80;68.10;;;;;;5090874;28;19920;-75
2021/04/01 09:29:22;;;;;;;;;;;18.00;69.00;;;;;;5104054;28;20416;-75
2021/04/01 09:31:56;;;;;;;;;;;18.10;65.70;;;;;;5085165;28;20053;-75
2021/04/01 09:34:23;;;;;;;;;;;18.20;67.60;;;;;;5105477;28;19973;-75
2021/04/01 09:36:48;;;;;;;;;;;18.40;68.00;;;;;;5088880;28;19920;-74
2021/04/01 09:39:26;;;;;;;;;;;18.50;70.60;;;;;;5088681;28;19912;-75
2021/04/01 09:41:55;;;;;;;;;;;18.60;70.00;;;;;;5090824;28;19931;-74
2021/04/01 09:44:25;;;;;;;;;;;18.70;69.60;;;;;;5087205;28;19939;-75
2021/04/01 09:46:55;;;;;;;;;;;18.80;67.80;;;;;;5073931;28;20026;-74
2021/04/01 09:49:20;;;;;;;;;;;19.00;66.90;;;;;;5088147;28;19928;-74
2021/04/01 09:51:51;;;;;;;;;;;19.10;66.20;;;;;;5091185;28;19915;-75
2021/04/01 09:54:17;;;;;;;;;;;19.20;65.30;;;;;;5087880;28;19943;-74
2021/04/01 09:56:52;;;;;;;;;;;19.30;64.20;;;;;;5090599;28;19955;-75
2021/04/01 09:59:18;;;;;;;;;;;19.40;64.30;;;;;;5085196;28;20340;-75
2021/04/01 10:01:46;;;;;;;;;;;19.50;64.90;;;;;;5088705;28;19911;-75
2021/04/01 10:04:17;;;;;;;;;;;19.60;64.60;;;;;;5085098;28;20084;-74
2021/04/01 10:06:43;;;;;;;;;;;19.70;67.40;;;;;;5087566;28;19920;-75
2021/04/01 10:09:09;;;;;;;;;;;19.80;67.60;;;;;;5087760;28;19927;-75
2021/04/01 10:11:38;;;;;;;;;;;20.00;64.20;;;;;;5092923;28;19936;-76
2021/04/01 10:14:07;;;;;;;;;;;20.20;63.60;;;;;;5078082;28;19920;-75
2021/04/01 10:16:33;;;;;;;;;;;20.30;60.30;;;;;;5073913;28;19912;-75
2021/04/01 10:18:59;;;;;;;;;;;20.50;63.80;;;;;;5088628;28;19931;-75
2021/04/01 10:21:24;;;;;;;;;;;20.60;60.30;;;;;;5090145;28;19916;-75
2021/04/01 10:23:53;;;;;;;;;;;20.80;64.10;;;;;;5086278;28;20234;-75
2021/04/01 10:26:23;;;;;;;;;;;21.00;58.70;;;;;;5091298;28;19927;-75
2021/04/01 10:28:57;;;;;;;;;;;21.10;61.40;;;;;;5085581;28;20065;-75
2021/04/01 10:31:23;;;;;;;;;;;21.30;66.20;;;;;;5083527;28;20880;-75
2021/04/01 10:34:00;;;;;;;;;;;21.40;59.40;;;;;;5086042;28;19916;-76
2021/04/01 10:36:29;;;;;;;;;;;21.50;60.90;;;;;;5090399;28;19912;-75
2021/04/01 10:39:09;;;;;;;;;;;21.50;58.70;;;;;;5091812;28;20218;-77
2021/04/01 10:41:47;;;;;;;;;;;21.70;58.90;;;;;;5083495;28;19924;-75
2021/04/01 10:44:12;;;;;;;;;;;21.90;57.90;;;;;;5109847;27;20010;-75
2021/04/01 10:46:40;;;;;;;;;;;22.00;57.50;;;;;;5082594;28;20003;-76
2021/04/01 10:49:08;;;;;;;;;;;22.20;57.00;;;;;;5091829;28;19946;-75
2021/04/01 10:51:39;;;;;;;;;;;22.30;55.10;;;;;;5091027;28;19916;-75
2021/04/01 10:54:08;;;;;;;;;;;22.40;56.70;;;;;;5078527;28;20006;-75
2021/04/01 10:56:43;;;;;;;;;;;22.60;57.90;;;;;;5092932;28;19956;-75
2021/04/01 10:59:09;;;;;;;;;;;22.60;57.20;;;;;;5092063;28;19955;-76
2021/04/01 11:01:36;;;;;;;;;;;22.80;52.70;;;;;;5094990;28;19955;-75
2021/04/01 11:04:05;;;;;;;;;;;22.90;54.20;;;;;;5090222;28;19924;-76
2021/04/01 11:06:31;;;;;;;;;;;22.90;55.60;;;;;;5083270;28;19923;-75
2021/04/01 11:08:59;;;;;;;;;;;23.10;56.50;;;;;;5075873;28;19926;-76
2021/04/01 11:11:38;;;;;;;;;;;23.20;55.20;;;;;;5109293;27;19978;-75
2021/04/01 11:14:06;;;;;;;;;;;23.30;55.40;;;;;;5090340;28;19916;-75
2021/04/01 11:16:32;;;;;;;;;;;23.50;54.80;;;;;;5097419;28;19950;-75
2021/04/01 11:19:00;;;;;;;;;;;23.50;56.40;;;;;;5091988;28;19977;-72
2021/04/01 11:21:27;;;;;;;;;;;23.70;56.30;;;;;;5091740;28;19924;-75
2021/04/01 11:23:53;;;;;;;;;;;23.70;55.00;;;;;;5089218;28;19981;-75
2021/04/01 11:26:27;;;;;;;;;;;23.90;56.20;;;;;;5092038;28;19912;-75
2021/04/01 11:28:55;;;;;;;;;;;23.90;54.70;;;;;;5095005;28;19916;-75
2021/04/01 11:31:26;;;;;;;;;;;24.00;53.80;;;;;;5088930;28;21653;-75
2021/04/01 11:33:52;;;;;;;;;;;24.20;52.30;;;;;;5091554;28;20015;-74
2021/04/01 11:36:19;;;;;;;;;;;24.20;45.70;;;;;;5092260;28;19920;-75
2021/04/01 11:38:48;;;;;;;;;;;24.20;49.30;;;;;;5072195;28;19953;-75
2021/04/01 11:41:17;;;;;;;;;;;24.30;53.30;;;;;;5090526;28;20367;-75
2021/04/01 11:43:43;;;;;;;;;;;24.20;47.70;;;;;;5086802;28;20309;-75
2021/04/01 11:46:18;;;;;;;;;;;24.30;49.60;;;;;;5097556;28;19927;-75
2021/04/01 11:48:44;;;;;;;;;;;24.40;51.50;;;;;;5093033;28;19938;-75
2021/04/01 11:51:13;;;;;;;;;;;24.40;50.00;;;;;;5107903;27;19920;-75
2021/04/01 11:53:41;;;;;;;;;;;24.50;52.10;;;;;;5085268;28;19911;-75
2021/04/01 11:56:09;;;;;;;;;;;24.80;50.10;;;;;;5088052;28;19916;-75
2021/04/01 11:58:35;;;;;;;;;;;25.00;47.90;;;;;;5076685;28;19919;-75
2021/04/01 12:01:09;;;;;;;;;;;25.30;50.20;;;;;;5086522;28;19920;-75
2021/04/01 12:06:26;;;;;;;;;;;25.50;47.70;;;;;;5091976;28;19938;-75
2021/04/01 12:08:51;;;;;;;;;;;25.50;47.10;;;;;;5089179;28;19916;-74
2021/04/01 12:11:17;;;;;;;;;;;25.60;46.40;;;;;;5074062;28;19927;-73
2021/04/01 12:13:45;;;;;;;;;;;25.70;49.70;;;;;;5086452;28;19923;-74
2021/04/01 12:16:15;;;;;;;;;;;25.70;50.90;;;;;;5088469;28;20404;-74
2021/04/01 12:18:40;;;;;;;;;;;25.80;48.30;;;;;;5086004;28;20364;-74
2021/04/01 12:21:06;;;;;;;;;;;26.00;45.00;;;;;;5123776;27;19912;-74
2021/04/01 12:23:33;;;;;;;;;;;26.10;49.70;;;;;;5072109;28;20346;-74
2021/04/01 12:26:04;;;;;;;;;;;26.00;43.80;;;;;;5087553;28;19912;-74
2021/04/01 12:28:29;;;;;;;;;;;26.10;49.30;;;;;;5090170;28;19962;-74
2021/04/01 12:30:57;;;;;;;;;;;26.20;48.10;;;;;;5087952;28;19943;-74
2021/04/01 12:33:23;;;;;;;;;;;26.20;42.60;;;;;;5076803;28;19947;-75
2021/04/01 12:35:52;;;;;;;;;;;26.30;43.70;;;;;;5110060;27;19916;-74
2021/04/01 12:38:25;;;;;;;;;;;26.40;42.90;;;;;;5087439;28;19912;-74
2021/04/01 12:40:52;;;;;;;;;;;26.10;42.50;;;;;;5090628;28;19920;-74
2021/04/01 12:43:20;;;;;;;;;;;26.10;42.20;;;;;;5093235;28;19912;-74
2021/04/01 12:46:01;;;;;;;;;;;26.00;42.70;;;;;;5090057;28;19913;-74
2021/04/01 12:48:39;;;;;;;;;;;26.00;43.00;;;;;;5090004;28;19955;-74
2021/04/01 12:51:07;;;;;;;;;;;26.00;43.70;;;;;;5091957;28;19960;-74
2021/04/01 12:53:33;;;;;;;;;;;26.00;39.10;;;;;;5092802;28;19961;-74
2021/04/01 12:56:17;;;;;;;;;;;25.80;42.90;;;;;;5091863;28;19920;-74
2021/04/01 12:58:55;;;;;;;;;;;25.80;42.30;;;;;;5093851;28;19922;-74
2021/04/01 13:01:28;;;;;;;;;;;25.70;39.30;;;;;;5090519;28;20014;-74
2021/04/01 13:03:57;;;;;;;;;;;25.60;41.80;;;;;;5089668;28;20511;-73
2021/04/01 13:06:30;;;;;;;;;;;25.60;39.10;;;;;;5127011;27;19997;-73
2021/04/01 13:11:26;;;;;;;;;;;25.50;40.50;;;;;;5091176;28;19939;-74
2021/04/01 13:13:55;;;;;;;;;;;25.40;40.70;;;;;;5091696;28;20093;-73
2021/04/01 13:16:23;;;;;;;;;;;25.40;42.70;;;;;;5088944;28;19930;-74
2021/04/01 13:18:48;;;;;;;;;;;25.40;38.60;;;;;;5089184;28;20353;-74
2021/04/01 13:24:27;;;;;;;;;;;25.20;39.60;;;;;;5095651;28;20327;-73
2021/04/01 13:26:44;;;;;;;;;;;25.00;40.10;;;;;;5090801;28;20003;-70
2021/04/01 13:29:09;;;;;;;;;;;25.20;40.20;;;;;;5088659;28;20003;-72
2021/04/01 13:31:41;;;;;;;;;;;25.50;41.50;;;;;;5092581;28;19969;-80
2021/04/01 13:34:20;;;;;;;;;;;25.70;39.80;;;;;;5085389;28;19976;-70
2021/04/01 13:42:05;;;;;;;;;;;26.10;38.50;;;;;;5086625;28;19912;-71
2021/04/01 13:44:37;;;;;;;;;;;26.40;40.10;;;;;;5084876;28;19920;-71
2021/04/01 13:47:02;;;;;;;;;;;26.40;40.40;;;;;;5085995;28;19916;-70
2021/04/01 13:49:29;;;;;;;;;;;26.40;36.40;;;;;;5088962;28;19913;-71
2021/04/01 13:52:14;;;;;;;;;;;26.20;36.50;;;;;;5088150;28;19920;-71
2021/04/01 13:59:52;;;;;;;;;;;26.10;38.20;;;;;;5082485;28;19968;-71
2021/04/01 14:10:33;;;;;;;;;;;24.70;36.70;;;;;;5085403;28;19939;-70
2021/04/01 14:12:59;;;;;;;;;;;24.60;36.80;;;;;;5087524;28;20470;-71
2021/04/01 14:15:27;;;;;;;;;;;24.10;37.60;;;;;;5092098;28;21814;-71
2021/04/01 14:17:52;;;;;;;;;;;24.30;39.60;;;;;;5090297;28;19962;-71
2021/04/01 14:20:18;;;;;;;;;;;24.20;39.20;;;;;;5091106;28;19963;-71
2021/04/01 14:22:47;;;;;;;;;;;24.20;38.60;;;;;;5091509;28;19911;-71
2021/04/01 14:25:19;;;;;;;;;;;24.30;43.50;;;;;;5088858;28;19955;-72
2021/04/01 14:27:51;;;;;;;;;;;24.30;39.40;;;;;;5089160;28;20365;-70
2021/04/01 14:30:23;;;;;;;;;;;24.20;37.80;;;;;;5087276;28;19927;-71
2021/04/01 14:32:48;;;;;;;;;;;24.10;39.00;;;;;;5088150;28;19920;-71
2021/04/01 14:35:16;;;;;;;;;;;24.00;39.30;;;;;;5075510;28;19942;-72
2021/04/01 14:37:42;;;;;;;;;;;23.90;40.00;;;;;;5093051;28;19923;-72
2021/04/01 14:40:11;;;;;;;;;;;23.80;41.50;;;;;;5089575;28;19913;-71
2021/04/01 14:42:55;;;;;;;;;;;23.80;40.80;;;;;;5089362;28;19916;-71
2021/04/01 14:45:23;;;;;;;;;;;23.70;41.50;;;;;;5091930;28;19916;-71
2021/04/01 14:47:51;;;;;;;;;;;23.60;41.90;;;;;;5087798;28;19916;-71
2021/04/01 14:50:16;;;;;;;;;;;23.60;40.70;;;;;;5089401;28;19916;-70
2021/04/01 14:52:43;;;;;;;;;;;23.40;40.10;;;;;;5089557;28;19923;-70
2021/04/01 14:55:12;;;;;;;;;;;23.30;42.20;;;;;;5088055;28;19911;-71
2021/04/01 14:57:43;;;;;;;;;;;23.30;42.30;;;;;;5089791;28;20613;-70
2021/04/01 15:00:12;;;;;;;;;;;23.20;42.00;;;;;;5090485;28;19923;-70
2021/04/01 15:02:40;;;;;;;;;;;23.10;42.80;;;;;;5087101;28;19931;-70
2021/04/01 15:05:06;;;;;;;;;;;22.90;42.10;;;;;;5090458;28;20378;-71
2021/04/01 15:07:32;;;;;;;;;;;22.90;43.90;;;;;;5106646;27;19924;-71
2021/04/01 15:10:01;;;;;;;;;;;22.90;42.90;;;;;;5088922;28;19916;-70
2021/04/01 15:12:27;;;;;;;;;;;22.80;42.60;;;;;;5095740;28;19924;-71
2021/04/01 15:14:54;;;;;;;;;;;22.80;43.60;;;;;;5088774;28;19931;-71
2021/04/01 15:17:23;;;;;;;;;;;22.80;43.50;;;;;;5094539;27;19951;-70
2021/04/01 15:19:49;;;;;;;;;;;22.70;42.70;;;;;;5091084;28;19912;-69
2021/04/01 15:22:14;;;;;;;;;;;22.60;42.50;;;;;;5085130;28;19946;-71
2021/04/01 15:24:42;;;;;;;;;;;22.50;44.60;;;;;;5087439;28;20402;-69
2021/04/01 15:27:08;;;;;;;;;;;22.40;43.30;;;;;;5090521;28;20381;-69
2021/04/01 15:29:33;;;;;;;;;;;22.30;43.50;;;;;;5090907;28;19919;-69
2021/04/01 15:31:59;;;;;;;;;;;22.30;43.80;;;;;;5090817;28;20019;-70
2021/04/01 15:34:24;;;;;;;;;;;22.30;44.00;;;;;;5089836;28;20306;-69
2021/04/01 15:36:50;;;;;;;;;;;22.30;44.30;;;;;;5089450;28;19943;-70
2021/04/01 15:39:17;;;;;;;;;;;22.20;44.40;;;;;;5090635;28;20265;-69
2021/04/01 15:41:42;;;;;;;;;;;22.10;44.20;;;;;;5091971;28;19968;-70
2021/04/01 15:44:10;;;;;;;;;;;22.00;45.50;;;;;;5088398;28;19927;-70
2021/04/01 15:46:36;;;;;;;;;;;22.00;45.10;;;;;;5087237;28;19930;-70
2021/04/01 15:49:01;;;;;;;;;;;22.00;46.80;;;;;;5091306;28;19916;-70
2021/04/01 15:51:29;;;;;;;;;;;22.00;45.20;;;;;;5091976;28;19919;-70
2021/04/01 15:53:57;;;;;;;;;;;21.90;45.50;;;;;;5088489;28;19912;-69
2021/04/01 15:56:25;;;;;;;;;;;21.80;44.70;;;;;;5090793;28;19916;-70
2021/04/01 15:58:51;;;;;;;;;;;21.80;45.50;;;;;;5089125;28;19919;-69
2021/04/01 16:01:16;;;;;;;;;;;21.70;45.80;;;;;;5092720;28;20521;-70
2021/04/01 16:03:44;;;;;;;;;;;21.70;46.50;;;;;;5091828;28;19925;-69
2021/04/01 16:06:10;;;;;;;;;;;21.50;45.70;;;;;;5090231;28;19916;-70
2021/04/01 16:08:35;;;;;;;;;;;21.50;46.00;;;;;;5090849;28;19920;-70
2021/04/01 16:11:02;;;;;;;;;;;21.50;46.40;;;;;;5090570;28;19923;-69
2021/04/01 16:13:28;;;;;;;;;;;21.40;46.30;;;;;;5076663;28;19915;-69
2021/04/01 16:15:56;;;;;;;;;;;21.40;46.40;;;;;;5087310;28;19931;-70